sensor_id;sensor_type;location;lat;lon;timestamp;P1;durP1;ratioP1;P2;durP2;ratioP2
23402;SDS011;11874;48.228;11.684;2022-10-14T00:00:34;4.75;;;3.20;;
23402;SDS011;11874;48.228;11.684;2022-10-14T00:03:03;4.93;;;2.92;;
23402;SDS011;11874;48.228;11.684;2022-10-14T00:05:31;4.28;;;3.22;;
23402;SDS011;11874;48.228;11.684;2022-10-14T00:07:59;5.05;;;3.78;;
23402;SDS011;11874;48.228;11.684;2022-10-14T00:10:28;5.65;;;3.20;;
23402;SDS011;11874;48.228;11.684;2022-10-14T00:12:56;4.82;;;3.30;;
23402;SDS011;11874;48.228;11.684;2022-10-14T00:15:24;4.35;;;3.42;;
23402;SDS011;11874;48.228;11.684;2022-10-14T00:17:52;6.47;;;3.47;;
23402;SDS011;11874;48.228;11.684;2022-10-14T00:20:20;5.20;;;3.45;;
23402;SDS011;11874;48.228;11.684;2022-10-14T00:22:47;3.67;;;3.30;;
23402;SDS011;11874;48.228;11.684;2022-10-14T00:25:15;5.57;;;3.92;;
23402;SDS011;11874;48.228;11.684;2022-10-14T00:27:45;5.47;;;3.67;;
23402;SDS011;11874;48.228;11.684;2022-10-14T00:30:13;3.58;;;3.20;;
23402;SDS011;11874;48.228;11.684;2022-10-14T00:32:41;5.45;;;3.13;;
23402;SDS011;11874;48.228;11.684;2022-10-14T00:35:09;3.95;;;3.42;;
23402;SDS011;11874;48.228;11.684;2022-10-14T00:37:37;5.13;;;4.00;;
23402;SDS011;11874;48.228;11.684;2022-10-14T00:40:06;5.60;;;3.70;;
23402;SDS011;11874;48.228;11.684;2022-10-14T00:42:34;6.03;;;3.65;;
23402;SDS011;11874;48.228;11.684;2022-10-14T00:45:05;7.40;;;3.60;;
23402;SDS011;11874;48.228;11.684;2022-10-14T00:47:38;5.38;;;3.65;;
23402;SDS011;11874;48.228;11.684;2022-10-14T00:50:07;5.55;;;3.35;;
23402;SDS011;11874;48.228;11.684;2022-10-14T00:52:36;6.25;;;3.38;;
23402;SDS011;11874;48.228;11.684;2022-10-14T00:55:05;6.32;;;3.58;;
23402;SDS011;11874;48.228;11.684;2022-10-14T00:57:37;4.82;;;3.72;;
23402;SDS011;11874;48.228;11.684;2022-10-14T01:00:08;4.85;;;3.28;;
23402;SDS011;11874;48.228;11.684;2022-10-14T01:02:39;9.35;;;3.90;;
23402;SDS011;11874;48.228;11.684;2022-10-14T01:05:08;6.82;;;3.67;;
23402;SDS011;11874;48.228;11.684;2022-10-14T01:07:39;5.55;;;3.78;;
23402;SDS011;11874;48.228;11.684;2022-10-14T01:10:13;5.75;;;3.83;;
23402;SDS011;11874;48.228;11.684;2022-10-14T01:12:54;4.55;;;3.10;;
23402;SDS011;11874;48.228;11.684;2022-10-14T01:15:34;10.35;;;4.85;;
23402;SDS011;11874;48.228;11.684;2022-10-14T01:18:16;9.05;;;4.47;;
23402;SDS011;11874;48.228;11.684;2022-10-14T01:20:59;6.68;;;3.88;;
23402;SDS011;11874;48.228;11.684;2022-10-14T01:27:04;7.03;;;3.67;;
23402;SDS011;11874;48.228;11.684;2022-10-14T01:30:06;6.03;;;3.28;;
23402;SDS011;11874;48.228;11.684;2022-10-14T01:32:40;9.35;;;3.92;;
23402;SDS011;11874;48.228;11.684;2022-10-14T01:35:19;10.45;;;4.50;;
23402;SDS011;11874;48.228;11.684;2022-10-14T01:37:51;7.55;;;3.65;;
23402;SDS011;11874;48.228;11.684;2022-10-14T01:40:25;6.05;;;4.00;;
23402;SDS011;11874;48.228;11.684;2022-10-14T01:42:56;5.45;;;3.40;;
23402;SDS011;11874;48.228;11.684;2022-10-14T01:45:28;8.23;;;3.80;;
23402;SDS011;11874;48.228;11.684;2022-10-14T01:47:59;6.93;;;4.45;;
23402;SDS011;11874;48.228;11.684;2022-10-14T01:50:30;7.60;;;4.32;;
23402;SDS011;11874;48.228;11.684;2022-10-14T01:53:01;8.10;;;3.95;;
23402;SDS011;11874;48.228;11.684;2022-10-14T01:55:32;6.38;;;3.35;;
23402;SDS011;11874;48.228;11.684;2022-10-14T01:58:03;5.57;;;3.28;;
23402;SDS011;11874;48.228;11.684;2022-10-14T02:00:34;6.32;;;3.15;;
23402;SDS011;11874;48.228;11.684;2022-10-14T02:03:03;6.97;;;3.28;;
23402;SDS011;11874;48.228;11.684;2022-10-14T02:05:32;5.78;;;2.95;;
23402;SDS011;11874;48.228;11.684;2022-10-14T02:08:04;4.70;;;2.88;;
23402;SDS011;11874;48.228;11.684;2022-10-14T02:10:41;6.95;;;3.65;;
23402;SDS011;11874;48.228;11.684;2022-10-14T02:13:33;4.88;;;2.97;;
23402;SDS011;11874;48.228;11.684;2022-10-14T02:16:17;5.00;;;2.60;;
23402;SDS011;11874;48.228;11.684;2022-10-14T02:18:53;4.07;;;3.15;;
23402;SDS011;11874;48.228;11.684;2022-10-14T02:21:29;3.35;;;2.47;;
23402;SDS011;11874;48.228;11.684;2022-10-14T02:24:03;4.43;;;2.80;;
23402;SDS011;11874;48.228;11.684;2022-10-14T02:26:33;4.57;;;2.50;;
23402;SDS011;11874;48.228;11.684;2022-10-14T02:29:03;2.40;;;2.20;;
23402;SDS011;11874;48.228;11.684;2022-10-14T02:31:33;3.50;;;2.17;;
23402;SDS011;11874;48.228;11.684;2022-10-14T02:34:05;4.18;;;2.53;;
23402;SDS011;11874;48.228;11.684;2022-10-14T02:36:37;2.63;;;2.42;;
23402;SDS011;11874;48.228;11.684;2022-10-14T02:39:08;2.95;;;2.40;;
23402;SDS011;11874;48.228;11.684;2022-10-14T02:41:39;3.70;;;2.40;;
23402;SDS011;11874;48.228;11.684;2022-10-14T02:44:07;3.15;;;2.50;;
23402;SDS011;11874;48.228;11.684;2022-10-14T02:46:37;6.47;;;2.38;;
23402;SDS011;11874;48.228;11.684;2022-10-14T02:49:06;3.67;;;3.00;;
23402;SDS011;11874;48.228;11.684;2022-10-14T02:51:34;4.93;;;2.45;;
23402;SDS011;11874;48.228;11.684;2022-10-14T02:54:02;4.03;;;3.00;;
23402;SDS011;11874;48.228;11.684;2022-10-14T02:56:30;3.05;;;2.45;;
23402;SDS011;11874;48.228;11.684;2022-10-14T02:58:58;5.43;;;2.55;;
23402;SDS011;11874;48.228;11.684;2022-10-14T03:01:26;6.85;;;2.70;;
23402;SDS011;11874;48.228;11.684;2022-10-14T03:03:58;4.35;;;2.38;;
23402;SDS011;11874;48.228;11.684;2022-10-14T03:06:25;2.90;;;2.58;;
23402;SDS011;11874;48.228;11.684;2022-10-14T03:08:53;4.63;;;2.42;;
23402;SDS011;11874;48.228;11.684;2022-10-14T03:11:21;3.92;;;2.63;;
23402;SDS011;11874;48.228;11.684;2022-10-14T03:13:49;5.10;;;2.60;;
23402;SDS011;11874;48.228;11.684;2022-10-14T03:16:17;3.17;;;2.65;;
23402;SDS011;11874;48.228;11.684;2022-10-14T03:18:45;3.40;;;2.33;;
23402;SDS011;11874;48.228;11.684;2022-10-14T03:21:14;2.97;;;2.50;;
23402;SDS011;11874;48.228;11.684;2022-10-14T03:23:42;2.95;;;2.50;;
23402;SDS011;11874;48.228;11.684;2022-10-14T03:26:10;5.20;;;2.53;;
23402;SDS011;11874;48.228;11.684;2022-10-14T03:28:39;6.07;;;2.80;;
23402;SDS011;11874;48.228;11.684;2022-10-14T03:31:07;4.28;;;2.50;;
23402;SDS011;11874;48.228;11.684;2022-10-14T03:33:35;4.78;;;2.60;;
23402;SDS011;11874;48.228;11.684;2022-10-14T03:36:03;3.85;;;2.50;;
23402;SDS011;11874;48.228;11.684;2022-10-14T03:38:33;4.80;;;2.35;;
23402;SDS011;11874;48.228;11.684;2022-10-14T03:41:01;5.05;;;2.40;;
23402;SDS011;11874;48.228;11.684;2022-10-14T03:43:29;4.05;;;2.40;;
23402;SDS011;11874;48.228;11.684;2022-10-14T03:45:57;3.60;;;2.30;;
23402;SDS011;11874;48.228;11.684;2022-10-14T03:48:25;6.13;;;3.15;;
23402;SDS011;11874;48.228;11.684;2022-10-14T03:50:52;3.53;;;2.50;;
23402;SDS011;11874;48.228;11.684;2022-10-14T03:53:20;3.47;;;2.35;;
23402;SDS011;11874;48.228;11.684;2022-10-14T03:55:49;6.43;;;3.10;;
23402;SDS011;11874;48.228;11.684;2022-10-14T03:58:17;3.65;;;2.80;;
23402;SDS011;11874;48.228;11.684;2022-10-14T04:00:45;4.30;;;2.75;;
23402;SDS011;11874;48.228;11.684;2022-10-14T04:03:13;4.28;;;2.53;;
23402;SDS011;11874;48.228;11.684;2022-10-14T04:05:41;7.55;;;2.97;;
23402;SDS011;11874;48.228;11.684;2022-10-14T04:08:09;5.07;;;3.20;;
23402;SDS011;11874;48.228;11.684;2022-10-14T04:10:37;5.47;;;2.50;;
23402;SDS011;11874;48.228;11.684;2022-10-14T04:13:06;6.07;;;3.65;;
23402;SDS011;11874;48.228;11.684;2022-10-14T04:15:34;4.38;;;2.70;;
23402;SDS011;11874;48.228;11.684;2022-10-14T04:18:02;4.07;;;3.20;;
23402;SDS011;11874;48.228;11.684;2022-10-14T04:20:30;5.40;;;3.00;;
23402;SDS011;11874;48.228;11.684;2022-10-14T04:22:58;4.93;;;3.30;;
23402;SDS011;11874;48.228;11.684;2022-10-14T04:25:26;4.25;;;3.42;;
23402;SDS011;11874;48.228;11.684;2022-10-14T04:27:54;6.78;;;3.50;;
23402;SDS011;11874;48.228;11.684;2022-10-14T04:30:23;6.15;;;3.47;;
23402;SDS011;11874;48.228;11.684;2022-10-14T04:32:51;4.13;;;3.45;;
23402;SDS011;11874;48.228;11.684;2022-10-14T04:35:19;6.10;;;3.58;;
23402;SDS011;11874;48.228;11.684;2022-10-14T04:37:47;5.65;;;3.72;;
23402;SDS011;11874;48.228;11.684;2022-10-14T04:40:15;5.40;;;3.97;;
23402;SDS011;11874;48.228;11.684;2022-10-14T04:42:45;7.28;;;3.40;;
23402;SDS011;11874;48.228;11.684;2022-10-14T04:45:13;5.30;;;3.33;;
23402;SDS011;11874;48.228;11.684;2022-10-14T04:47:42;5.82;;;3.58;;
23402;SDS011;11874;48.228;11.684;2022-10-14T04:50:14;4.05;;;3.40;;
23402;SDS011;11874;48.228;11.684;2022-10-14T04:52:42;4.82;;;3.33;;
23402;SDS011;11874;48.228;11.684;2022-10-14T04:55:10;5.00;;;3.40;;
23402;SDS011;11874;48.228;11.684;2022-10-14T04:57:38;5.03;;;3.15;;
23402;SDS011;11874;48.228;11.684;2022-10-14T05:00:08;6.68;;;3.80;;
23402;SDS011;11874;48.228;11.684;2022-10-14T05:02:38;4.55;;;3.58;;
23402;SDS011;11874;48.228;11.684;2022-10-14T05:05:07;5.13;;;3.20;;
23402;SDS011;11874;48.228;11.684;2022-10-14T05:07:36;4.40;;;3.65;;
23402;SDS011;11874;48.228;11.684;2022-10-14T05:10:04;4.32;;;3.58;;
23402;SDS011;11874;48.228;11.684;2022-10-14T05:12:32;4.35;;;3.35;;
23402;SDS011;11874;48.228;11.684;2022-10-14T05:15:00;7.63;;;3.65;;
23402;SDS011;11874;48.228;11.684;2022-10-14T05:17:30;3.78;;;2.80;;
23402;SDS011;11874;48.228;11.684;2022-10-14T05:19:58;4.72;;;3.40;;
23402;SDS011;11874;48.228;11.684;2022-10-14T05:22:27;5.03;;;3.40;;
23402;SDS011;11874;48.228;11.684;2022-10-14T05:24:55;4.63;;;3.30;;
23402;SDS011;11874;48.228;11.684;2022-10-14T05:27:23;4.72;;;3.10;;
23402;SDS011;11874;48.228;11.684;2022-10-14T05:29:51;5.25;;;2.90;;
23402;SDS011;11874;48.228;11.684;2022-10-14T05:32:19;3.50;;;3.20;;
23402;SDS011;11874;48.228;11.684;2022-10-14T05:34:47;4.10;;;3.08;;
23402;SDS011;11874;48.228;11.684;2022-10-14T05:37:15;6.32;;;3.65;;
23402;SDS011;11874;48.228;11.684;2022-10-14T05:39:44;4.97;;;3.25;;
23402;SDS011;11874;48.228;11.684;2022-10-14T05:42:12;5.40;;;3.53;;
23402;SDS011;11874;48.228;11.684;2022-10-14T05:44:40;4.80;;;3.22;;
23402;SDS011;11874;48.228;11.684;2022-10-14T05:47:08;4.18;;;2.97;;
23402;SDS011;11874;48.228;11.684;2022-10-14T05:49:36;7.15;;;3.28;;
23402;SDS011;11874;48.228;11.684;2022-10-14T05:52:04;5.05;;;3.20;;
23402;SDS011;11874;48.228;11.684;2022-10-14T05:54:32;6.18;;;3.05;;
23402;SDS011;11874;48.228;11.684;2022-10-14T05:57:01;6.22;;;3.00;;
23402;SDS011;11874;48.228;11.684;2022-10-14T05:59:29;4.63;;;3.33;;
23402;SDS011;11874;48.228;11.684;2022-10-14T06:01:59;3.95;;;3.40;;
23402;SDS011;11874;48.228;11.684;2022-10-14T06:04:27;5.28;;;3.58;;
23402;SDS011;11874;48.228;11.684;2022-10-14T06:06:55;4.65;;;2.83;;
23402;SDS011;11874;48.228;11.684;2022-10-14T06:09:25;4.75;;;3.33;;
23402;SDS011;11874;48.228;11.684;2022-10-14T06:11:53;6.18;;;3.50;;
23402;SDS011;11874;48.228;11.684;2022-10-14T06:14:22;8.23;;;3.83;;
23402;SDS011;11874;48.228;11.684;2022-10-14T06:16:50;6.32;;;4.10;;
23402;SDS011;11874;48.228;11.684;2022-10-14T06:19:18;5.80;;;3.47;;
23402;SDS011;11874;48.228;11.684;2022-10-14T06:21:46;7.65;;;3.47;;
23402;SDS011;11874;48.228;11.684;2022-10-14T06:24:14;5.65;;;3.08;;
23402;SDS011;11874;48.228;11.684;2022-10-14T06:26:42;5.38;;;3.20;;
23402;SDS011;11874;48.228;11.684;2022-10-14T06:29:10;8.00;;;3.42;;
23402;SDS011;11874;48.228;11.684;2022-10-14T06:31:39;3.78;;;2.60;;
23402;SDS011;11874;48.228;11.684;2022-10-14T06:34:07;6.32;;;3.08;;
23402;SDS011;11874;48.228;11.684;2022-10-14T06:36:35;4.45;;;3.00;;
23402;SDS011;11874;48.228;11.684;2022-10-14T06:39:03;3.33;;;2.60;;
23402;SDS011;11874;48.228;11.684;2022-10-14T06:41:31;3.60;;;3.00;;
23402;SDS011;11874;48.228;11.684;2022-10-14T06:43:59;2.90;;;2.47;;
23402;SDS011;11874;48.228;11.684;2022-10-14T06:46:27;5.40;;;2.60;;
23402;SDS011;11874;48.228;11.684;2022-10-14T06:48:57;4.93;;;2.50;;
23402;SDS011;11874;48.228;11.684;2022-10-14T06:51:25;3.83;;;2.50;;
23402;SDS011;11874;48.228;11.684;2022-10-14T06:53:53;7.03;;;2.55;;
23402;SDS011;11874;48.228;11.684;2022-10-14T06:56:21;4.35;;;2.70;;
23402;SDS011;11874;48.228;11.684;2022-10-14T06:58:51;6.43;;;2.72;;
23402;SDS011;11874;48.228;11.684;2022-10-14T07:01:19;3.22;;;2.70;;
23402;SDS011;11874;48.228;11.684;2022-10-14T07:03:48;5.78;;;2.47;;
23402;SDS011;11874;48.228;11.684;2022-10-14T07:06:23;3.90;;;3.05;;
23402;SDS011;11874;48.228;11.684;2022-10-14T07:08:51;5.32;;;3.25;;
23402;SDS011;11874;48.228;11.684;2022-10-14T07:11:19;3.25;;;2.33;;
23402;SDS011;11874;48.228;11.684;2022-10-14T07:13:46;2.88;;;2.58;;
23402;SDS011;11874;48.228;11.684;2022-10-14T07:16:14;4.03;;;2.55;;
23402;SDS011;11874;48.228;11.684;2022-10-14T07:18:42;7.32;;;2.78;;
23402;SDS011;11874;48.228;11.684;2022-10-14T07:21:10;3.70;;;2.33;;
23402;SDS011;11874;48.228;11.684;2022-10-14T07:23:39;3.85;;;2.45;;
23402;SDS011;11874;48.228;11.684;2022-10-14T07:26:07;4.20;;;2.45;;
23402;SDS011;11874;48.228;11.684;2022-10-14T07:28:35;4.50;;;2.72;;
23402;SDS011;11874;48.228;11.684;2022-10-14T07:31:04;5.68;;;3.83;;
23402;SDS011;11874;48.228;11.684;2022-10-14T07:33:34;3.28;;;2.83;;
23402;SDS011;11874;48.228;11.684;2022-10-14T07:36:09;3.05;;;2.40;;
23402;SDS011;11874;48.228;11.684;2022-10-14T07:38:42;3.20;;;2.30;;
23402;SDS011;11874;48.228;11.684;2022-10-14T07:41:11;5.00;;;2.58;;
23402;SDS011;11874;48.228;11.684;2022-10-14T07:46:12;3.08;;;2.78;;
23402;SDS011;11874;48.228;11.684;2022-10-14T07:48:40;3.05;;;2.38;;
23402;SDS011;11874;48.228;11.684;2022-10-14T07:51:22;3.38;;;2.40;;
23402;SDS011;11874;48.228;11.684;2022-10-14T07:53:52;3.88;;;2.47;;
23402;SDS011;11874;48.228;11.684;2022-10-14T07:56:20;4.35;;;2.20;;
23402;SDS011;11874;48.228;11.684;2022-10-14T07:58:49;4.18;;;2.70;;
23402;SDS011;11874;48.228;11.684;2022-10-14T08:01:17;4.07;;;2.55;;
23402;SDS011;11874;48.228;11.684;2022-10-14T08:03:46;3.08;;;2.47;;
23402;SDS011;11874;48.228;11.684;2022-10-14T08:06:14;4.00;;;2.55;;
23402;SDS011;11874;48.228;11.684;2022-10-14T08:08:43;7.95;;;2.58;;
23402;SDS011;11874;48.228;11.684;2022-10-14T08:11:13;3.05;;;2.25;;
23402;SDS011;11874;48.228;11.684;2022-10-14T08:16:12;3.85;;;2.10;;
23402;SDS011;11874;48.228;11.684;2022-10-14T08:18:41;5.32;;;2.55;;
23402;SDS011;11874;48.228;11.684;2022-10-14T08:21:10;5.85;;;2.10;;
23402;SDS011;11874;48.228;11.684;2022-10-14T08:23:38;4.18;;;2.35;;
23402;SDS011;11874;48.228;11.684;2022-10-14T08:26:13;3.22;;;2.03;;
23402;SDS011;11874;48.228;11.684;2022-10-14T08:28:46;2.17;;;1.83;;
23402;SDS011;11874;48.228;11.684;2022-10-14T08:31:14;3.63;;;1.80;;
23402;SDS011;11874;48.228;11.684;2022-10-14T08:33:42;2.50;;;1.65;;
23402;SDS011;11874;48.228;11.684;2022-10-14T08:36:10;4.40;;;1.90;;
23402;SDS011;11874;48.228;11.684;2022-10-14T08:38:38;3.88;;;2.03;;
23402;SDS011;11874;48.228;11.684;2022-10-14T08:41:12;4.78;;;2.13;;
23402;SDS011;11874;48.228;11.684;2022-10-14T08:43:53;2.58;;;1.70;;
23402;SDS011;11874;48.228;11.684;2022-10-14T08:46:33;2.50;;;1.90;;
23402;SDS011;11874;48.228;11.684;2022-10-14T08:49:06;2.78;;;1.67;;
23402;SDS011;11874;48.228;11.684;2022-10-14T08:51:39;1.88;;;1.60;;
23402;SDS011;11874;48.228;11.684;2022-10-14T08:54:13;5.47;;;1.95;;
23402;SDS011;11874;48.228;11.684;2022-10-14T08:56:45;2.03;;;1.50;;
23402;SDS011;11874;48.228;11.684;2022-10-14T08:59:14;3.20;;;2.30;;
23402;SDS011;11874;48.228;11.684;2022-10-14T09:01:47;6.05;;;2.22;;
23402;SDS011;11874;48.228;11.684;2022-10-14T09:04:17;2.95;;;1.75;;
23402;SDS011;11874;48.228;11.684;2022-10-14T09:06:46;1.88;;;1.40;;
23402;SDS011;11874;48.228;11.684;2022-10-14T09:09:19;2.08;;;1.42;;
23402;SDS011;11874;48.228;11.684;2022-10-14T09:11:52;1.80;;;1.27;;
23402;SDS011;11874;48.228;11.684;2022-10-14T09:14:23;3.03;;;1.38;;
23402;SDS011;11874;48.228;11.684;2022-10-14T09:16:54;1.50;;;1.37;;
23402;SDS011;11874;48.228;11.684;2022-10-14T09:19:27;2.15;;;1.30;;
23402;SDS011;11874;48.228;11.684;2022-10-14T09:21:58;2.53;;;1.20;;
23402;SDS011;11874;48.228;11.684;2022-10-14T09:24:27;5.20;;;1.38;;
23402;SDS011;11874;48.228;11.684;2022-10-14T09:27:03;1.98;;;1.50;;
23402;SDS011;11874;48.228;11.684;2022-10-14T09:29:34;1.67;;;1.50;;
23402;SDS011;11874;48.228;11.684;2022-10-14T09:32:10;2.55;;;1.40;;
23402;SDS011;11874;48.228;11.684;2022-10-14T09:34:43;3.30;;;1.27;;
23402;SDS011;11874;48.228;11.684;2022-10-14T09:37:17;3.00;;;1.40;;
23402;SDS011;11874;48.228;11.684;2022-10-14T09:39:50;3.25;;;1.30;;
23402;SDS011;11874;48.228;11.684;2022-10-14T09:42:23;5.60;;;1.58;;
23402;SDS011;11874;48.228;11.684;2022-10-14T09:45:02;2.30;;;1.38;;
23402;SDS011;11874;48.228;11.684;2022-10-14T09:47:40;1.98;;;1.27;;
23402;SDS011;11874;48.228;11.684;2022-10-14T09:50:18;3.03;;;1.50;;
23402;SDS011;11874;48.228;11.684;2022-10-14T09:52:52;2.70;;;1.30;;
23402;SDS011;11874;48.228;11.684;2022-10-14T09:55:23;7.00;;;1.45;;
23402;SDS011;11874;48.228;11.684;2022-10-14T09:57:58;1.48;;;1.08;;
23402;SDS011;11874;48.228;11.684;2022-10-14T10:00:35;2.22;;;1.52;;
23402;SDS011;11874;48.228;11.684;2022-10-14T10:03:04;2.95;;;1.20;;
23402;SDS011;11874;48.228;11.684;2022-10-14T10:05:33;1.90;;;1.15;;
23402;SDS011;11874;48.228;11.684;2022-10-14T10:08:06;1.35;;;1.17;;
23402;SDS011;11874;48.228;11.684;2022-10-14T10:10:42;2.05;;;1.02;;
23402;SDS011;11874;48.228;11.684;2022-10-14T10:13:33;1.65;;;1.20;;
23402;SDS011;11874;48.228;11.684;2022-10-14T10:16:05;1.25;;;1.10;;
23402;SDS011;11874;48.228;11.684;2022-10-14T10:18:34;2.17;;;1.13;;
23402;SDS011;11874;48.228;11.684;2022-10-14T10:21:03;4.07;;;1.30;;
23402;SDS011;11874;48.228;11.684;2022-10-14T10:23:34;2.78;;;1.17;;
23402;SDS011;11874;48.228;11.684;2022-10-14T10:26:15;1.40;;;1.20;;
23402;SDS011;11874;48.228;11.684;2022-10-14T10:28:48;2.45;;;1.15;;
23402;SDS011;11874;48.228;11.684;2022-10-14T10:31:23;1.60;;;1.05;;
23402;SDS011;11874;48.228;11.684;2022-10-14T10:34:15;3.90;;;1.30;;
23402;SDS011;11874;48.228;11.684;2022-10-14T10:36:58;1.80;;;1.48;;
23402;SDS011;11874;48.228;11.684;2022-10-14T10:39:31;2.13;;;1.27;;
23402;SDS011;11874;48.228;11.684;2022-10-14T10:42:08;4.00;;;1.50;;
23402;SDS011;11874;48.228;11.684;2022-10-14T10:44:51;1.45;;;1.02;;
23402;SDS011;11874;48.228;11.684;2022-10-14T10:47:30;1.10;;;1.00;;
23402;SDS011;11874;48.228;11.684;2022-10-14T10:50:04;2.45;;;1.08;;
23402;SDS011;11874;48.228;11.684;2022-10-14T10:52:55;2.38;;;1.30;;
23402;SDS011;11874;48.228;11.684;2022-10-14T10:55:32;2.10;;;0.90;;
23402;SDS011;11874;48.228;11.684;2022-10-14T10:59:03;4.10;;;1.20;;
23402;SDS011;11874;48.228;11.684;2022-10-14T11:01:48;2.78;;;0.90;;
23402;SDS011;11874;48.228;11.684;2022-10-14T11:04:27;5.78;;;1.20;;
23402;SDS011;11874;48.228;11.684;2022-10-14T11:07:00;2.90;;;0.98;;
23402;SDS011;11874;48.228;11.684;2022-10-14T11:09:55;1.38;;;0.90;;
23402;SDS011;11874;48.228;11.684;2022-10-14T11:12:52;3.03;;;1.50;;
23402;SDS011;11874;48.228;11.684;2022-10-14T11:15:28;2.60;;;1.30;;
23402;SDS011;11874;48.228;11.684;2022-10-14T11:18:07;4.80;;;2.10;;
23402;SDS011;11874;48.228;11.684;2022-10-14T11:20:41;3.20;;;1.33;;
23402;SDS011;11874;48.228;11.684;2022-10-14T11:23:31;1.40;;;1.10;;
23402;SDS011;11874;48.228;11.684;2022-10-14T11:26:19;5.13;;;1.00;;
23402;SDS011;11874;48.228;11.684;2022-10-14T11:29:06;2.00;;;1.40;;
23402;SDS011;11874;48.228;11.684;2022-10-14T11:31:45;3.83;;;1.20;;
23402;SDS011;11874;48.228;11.684;2022-10-14T11:34:28;3.90;;;1.13;;
23402;SDS011;11874;48.228;11.684;2022-10-14T11:37:12;3.83;;;1.13;;
23402;SDS011;11874;48.228;11.684;2022-10-14T11:39:51;1.73;;;1.00;;
23402;SDS011;11874;48.228;11.684;2022-10-14T11:42:28;2.65;;;1.50;;
23402;SDS011;11874;48.228;11.684;2022-10-14T11:45:16;1.75;;;1.10;;
23402;SDS011;11874;48.228;11.684;2022-10-14T11:48:04;3.03;;;1.30;;
23402;SDS011;11874;48.228;11.684;2022-10-14T11:50:50;3.63;;;1.20;;
23402;SDS011;11874;48.228;11.684;2022-10-14T11:53:23;3.42;;;1.20;;
23402;SDS011;11874;48.228;11.684;2022-10-14T11:56:09;2.10;;;1.08;;
23402;SDS011;11874;48.228;11.684;2022-10-14T11:58:46;1.25;;;1.05;;
23402;SDS011;11874;48.228;11.684;2022-10-14T12:01:17;1.65;;;1.33;;
23402;SDS011;11874;48.228;11.684;2022-10-14T12:03:54;3.90;;;1.17;;
23402;SDS011;11874;48.228;11.684;2022-10-14T12:06:31;3.58;;;1.30;;
23402;SDS011;11874;48.228;11.684;2022-10-14T12:09:04;2.15;;;1.40;;
23402;SDS011;11874;48.228;11.684;2022-10-14T12:11:42;6.50;;;1.85;;
23402;SDS011;11874;48.228;11.684;2022-10-14T12:14:13;5.10;;;1.50;;
23402;SDS011;11874;48.228;11.684;2022-10-14T12:16:45;2.92;;;1.00;;
23402;SDS011;11874;48.228;11.684;2022-10-14T12:19:17;4.20;;;1.10;;
23402;SDS011;11874;48.228;11.684;2022-10-14T12:21:50;3.80;;;2.00;;
23402;SDS011;11874;48.228;11.684;2022-10-14T12:24:24;5.03;;;1.10;;
23402;SDS011;11874;48.228;11.684;2022-10-14T12:26:56;2.00;;;1.60;;
23402;SDS011;11874;48.228;11.684;2022-10-14T12:29:28;3.60;;;1.27;;
23402;SDS011;11874;48.228;11.684;2022-10-14T12:32:06;2.92;;;1.30;;
23402;SDS011;11874;48.228;11.684;2022-10-14T12:34:46;1.20;;;1.05;;
23402;SDS011;11874;48.228;11.684;2022-10-14T12:40:28;0.95;;;0.90;;
23402;SDS011;11874;48.228;11.684;2022-10-14T12:42:58;2.95;;;1.35;;
23402;SDS011;11874;48.228;11.684;2022-10-14T12:45:29;1.25;;;1.00;;
23402;SDS011;11874;48.228;11.684;2022-10-14T12:48:02;3.97;;;1.10;;
23402;SDS011;11874;48.228;11.684;2022-10-14T12:50:40;2.45;;;1.00;;
23402;SDS011;11874;48.228;11.684;2022-10-14T12:53:17;1.25;;;0.80;;
23402;SDS011;11874;48.228;11.684;2022-10-14T12:55:49;0.68;;;0.68;;
23402;SDS011;11874;48.228;11.684;2022-10-14T12:58:23;1.00;;;0.90;;
23402;SDS011;11874;48.228;11.684;2022-10-14T13:00:56;1.70;;;1.10;;
23402;SDS011;11874;48.228;11.684;2022-10-14T13:03:29;2.72;;;0.95;;
23402;SDS011;11874;48.228;11.684;2022-10-14T13:15:35;1.00;;;0.80;;
23402;SDS011;11874;48.228;11.684;2022-10-14T13:18:34;2.05;;;1.00;;
23402;SDS011;11874;48.228;11.684;2022-10-14T13:21:29;2.55;;;1.15;;
23402;SDS011;11874;48.228;11.684;2022-10-14T13:24:23;2.13;;;0.95;;
23402;SDS011;11874;48.228;11.684;2022-10-14T13:26:56;2.95;;;1.00;;
23402;SDS011;11874;48.228;11.684;2022-10-14T13:29:35;3.15;;;1.90;;
23402;SDS011;11874;48.228;11.684;2022-10-14T13:32:24;2.35;;;1.02;;
23402;SDS011;11874;48.228;11.684;2022-10-14T13:34:58;2.47;;;1.10;;
23402;SDS011;11874;48.228;11.684;2022-10-14T13:37:38;3.17;;;1.50;;
23402;SDS011;11874;48.228;11.684;2022-10-14T13:40:21;3.58;;;1.40;;
23402;SDS011;11874;48.228;11.684;2022-10-14T13:42:56;1.75;;;1.08;;
23402;SDS011;11874;48.228;11.684;2022-10-14T13:45:27;1.92;;;0.68;;
23402;SDS011;11874;48.228;11.684;2022-10-14T13:48:04;1.00;;;0.80;;
23402;SDS011;11874;48.228;11.684;2022-10-14T13:50:40;1.73;;;0.90;;
23402;SDS011;11874;48.228;11.684;2022-10-14T13:53:13;2.58;;;0.90;;
23402;SDS011;11874;48.228;11.684;2022-10-14T13:55:43;2.42;;;1.10;;
23402;SDS011;11874;48.228;11.684;2022-10-14T13:58:17;1.40;;;1.10;;
23402;SDS011;11874;48.228;11.684;2022-10-14T14:00:48;6.68;;;2.28;;
23402;SDS011;11874;48.228;11.684;2022-10-14T14:03:28;1.50;;;1.00;;
23402;SDS011;11874;48.228;11.684;2022-10-14T14:05:58;3.50;;;1.20;;
23402;SDS011;11874;48.228;11.684;2022-10-14T14:08:29;1.92;;;1.00;;
23402;SDS011;11874;48.228;11.684;2022-10-14T14:11:06;3.30;;;1.10;;
23402;SDS011;11874;48.228;11.684;2022-10-14T14:13:45;2.83;;;1.20;;
23402;SDS011;11874;48.228;11.684;2022-10-14T14:16:25;2.05;;;1.08;;
23402;SDS011;11874;48.228;11.684;2022-10-14T14:19:00;2.97;;;0.95;;
23402;SDS011;11874;48.228;11.684;2022-10-14T14:21:35;2.97;;;1.10;;
23402;SDS011;11874;48.228;11.684;2022-10-14T14:24:09;3.58;;;1.05;;
23402;SDS011;11874;48.228;11.684;2022-10-14T14:26:42;2.47;;;1.00;;
23402;SDS011;11874;48.228;11.684;2022-10-14T14:29:13;4.05;;;1.20;;
23402;SDS011;11874;48.228;11.684;2022-10-14T14:31:43;1.25;;;1.15;;
23402;SDS011;11874;48.228;11.684;2022-10-14T14:34:33;1.75;;;1.15;;
23402;SDS011;11874;48.228;11.684;2022-10-14T14:37:03;1.63;;;1.27;;
23402;SDS011;11874;48.228;11.684;2022-10-14T14:39:55;2.08;;;1.50;;
23402;SDS011;11874;48.228;11.684;2022-10-14T14:42:24;2.65;;;1.20;;
23402;SDS011;11874;48.228;11.684;2022-10-14T14:44:54;2.97;;;1.50;;
23402;SDS011;11874;48.228;11.684;2022-10-14T14:47:27;2.67;;;1.30;;
23402;SDS011;11874;48.228;11.684;2022-10-14T14:49:57;1.38;;;1.27;;
23402;SDS011;11874;48.228;11.684;2022-10-14T14:52:47;2.58;;;1.50;;
23402;SDS011;11874;48.228;11.684;2022-10-14T14:55:32;2.15;;;1.40;;
23402;SDS011;11874;48.228;11.684;2022-10-14T14:58:12;3.40;;;1.45;;
23402;SDS011;11874;48.228;11.684;2022-10-14T15:00:50;1.77;;;1.52;;
23402;SDS011;11874;48.228;11.684;2022-10-14T15:03:20;3.63;;;1.50;;
23402;SDS011;11874;48.228;11.684;2022-10-14T15:05:52;2.60;;;1.83;;
23402;SDS011;11874;48.228;11.684;2022-10-14T15:08:24;2.00;;;1.35;;
23402;SDS011;11874;48.228;11.684;2022-10-14T15:10:54;3.78;;;1.55;;
23402;SDS011;11874;48.228;11.684;2022-10-14T15:13:25;2.45;;;1.42;;
23402;SDS011;11874;48.228;11.684;2022-10-14T15:15:55;2.13;;;1.42;;
23402;SDS011;11874;48.228;11.684;2022-10-14T15:18:23;2.60;;;1.60;;
23402;SDS011;11874;48.228;11.684;2022-10-14T15:21:14;2.30;;;1.58;;
23402;SDS011;11874;48.228;11.684;2022-10-14T15:23:55;3.55;;;1.98;;
23402;SDS011;11874;48.228;11.684;2022-10-14T15:26:29;2.83;;;1.50;;